Time;durP1;ratioP1;P1;durP2;ratioP2;P2;SDS_P1;SDS_P2;PMS_P1;PMS_P2;Temp;Humidity;BMP_temperature;BMP_pressure;BME280_temperature;BME280_humidity;BME280_pressure;Samples;Min_cycle;Max_cycle;Signal;HPM_P1;HPM_P2
2022/02/16 00:02:09;;;;;;;6.78;5.60;;;;;;;8.35;100.00;100240.34;10419796;28;20056;-73
2022/02/16 00:07:09;;;;;;;9.10;6.05;;;;;;;8.34;100.00;100239.50;10418564;28;20637;-73
2022/02/16 00:12:10;;;;;;;13.35;6.50;;;;;;;8.30;100.00;100227.47;10417815;28;20079;-73
2022/02/16 00:17:10;;;;;;;12.70;8.02;;;;;;;8.30;100.00;100221.25;10417489;28;20477;-72
2022/02/16 00:22:10;;;;;;;8.52;7.07;;;;;;;8.27;100.00;100218.94;10418347;28;20037;-73
2022/02/16 00:27:11;;;;;;;18.58;7.30;;;;;;;8.24;100.00;100205.84;10417945;28;20116;-73
2022/02/16 00:32:12;;;;;;;7.05;6.28;;;;;;;8.28;100.00;100193.63;10417579;28;20073;-72
2022/02/16 00:37:12;;;;;;;12.43;8.02;;;;;;;8.23;100.00;100196.06;10416907;28;20062;-73
2022/02/16 00:42:13;;;;;;;11.30;6.85;;;;;;;8.22;100.00;100180.94;10399826;28;20546;-73
2022/02/16 00:47:13;;;;;;;10.68;5.63;;;;;;;8.23;100.00;100171.81;10417254;28;20029;-73
2022/02/16 00:52:13;;;;;;;13.85;6.88;;;;;;;8.19;100.00;100160.59;10415868;28;20535;-73
2022/02/16 00:57:16;;;;;;;15.88;6.15;;;;;;;8.25;100.00;100149.00;10416902;28;20095;-73
2022/02/16 01:02:16;;;;;;;14.40;6.35;;;;;;;8.20;100.00;100140.69;10416344;28;20048;-73
2022/02/16 01:07:16;;;;;;;9.63;6.35;;;;;;;8.24;100.00;100122.25;10415865;28;20037;-72
2022/02/16 01:12:17;;;;;;;8.82;6.40;;;;;;;8.29;100.00;100111.66;10416202;28;20148;-72
2022/02/16 01:17:17;;;;;;;18.77;7.63;;;;;;;8.35;100.00;100113.56;10415010;28;20033;-72
2022/02/16 01:22:17;;;;;;;13.73;7.78;;;;;;;8.36;100.00;100105.28;10414752;28;20445;-72
2022/02/16 01:27:19;;;;;;;15.25;8.50;;;;;;;8.40;100.00;100086.00;10398362;28;20052;-72
2022/02/16 01:32:19;;;;;;;23.98;8.27;;;;;;;8.41;100.00;100063.38;10416891;28;20088;-74
2022/02/16 01:37:20;;;;;;;16.92;8.02;;;;;;;8.49;100.00;100057.81;10418307;28;20134;-75
2022/02/16 01:42:20;;;;;;;18.48;7.90;;;;;;;8.52;100.00;100041.19;10415523;28;20483;-75
2022/02/16 01:47:21;;;;;;;21.67;7.90;;;;;;;8.58;100.00;100034.97;10416055;28;20033;-75
2022/02/16 01:52:21;;;;;;;17.13;9.65;;;;;;;8.55;100.00;100036.25;10416320;28;20089;-75
2022/02/16 01:57:22;;;;;;;20.83;9.77;;;;;;;8.54;100.00;100025.63;10419110;28;20076;-74
2022/02/16 02:02:22;;;;;;;15.80;9.20;;;;;;;8.51;100.00;100002.59;10417353;28;20029;-75
2022/02/16 02:07:23;;;;;;;30.73;11.65;;;;;;;8.50;100.00;99990.13;10416664;28;20037;-75
2022/02/16 02:12:23;;;;;;;15.13;9.68;;;;;;;8.52;100.00;99984.53;10414695;28;20060;-74
2022/02/16 02:17:23;;;;;;;13.43;8.38;;;;;;;8.58;100.00;99970.22;10421474;28;20120;-74
2022/02/16 02:22:24;;;;;;;22.73;8.35;;;;;;;8.62;100.00;99976.88;10423673;28;20492;-74
2022/02/16 02:27:24;;;;;;;17.50;10.07;;;;;;;8.65;100.00;99981.00;10425486;28;20040;-73
2022/02/16 02:32:25;;;;;;;22.83;12.02;;;;;;;8.66;100.00;99963.78;10424820;28;20034;-74
2022/02/16 02:37:25;;;;;;;20.67;9.82;;;;;;;8.59;100.00;99947.59;10427060;28;20422;-74
2022/02/16 02:42:26;;;;;;;18.10;10.63;;;;;;;8.63;100.00;99948.00;10423572;28;20116;-74
2022/02/16 02:47:26;;;;;;;13.90;11.40;;;;;;;8.61;100.00;99937.41;10422769;28;20034;-74
2022/02/16 02:52:26;;;;;;;16.60;10.85;;;;;;;8.55;100.00;99913.94;10422612;28;20041;-74
2022/02/16 02:57:27;;;;;;;12.68;7.55;;;;;;;8.49;100.00;99899.44;10422369;28;20100;-74
2022/02/16 03:02:27;;;;;;;14.02;8.93;;;;;;;8.51;100.00;99900.06;10424407;28;20441;-74
2022/02/16 03:07:28;;;;;;;18.60;9.07;;;;;;;8.55;100.00;99906.72;10421953;28;20052;-74
2022/02/16 03:12:28;;;;;;;18.10;9.43;;;;;;;8.60;100.00;99903.38;10421316;28;20067;-74
2022/02/16 03:17:29;;;;;;;20.33;10.38;;;;;;;8.48;100.00;99881.59;10422688;28;20357;-75
2022/02/16 03:22:29;;;;;;;12.88;7.25;;;;;;;8.53;100.00;99881.78;10423119;28;20460;-75
2022/02/16 03:27:30;;;;;;;13.05;7.07;;;;;;;8.45;100.00;99848.78;10421751;28;20473;-75
2022/02/16 03:32:30;;;;;;;6.72;5.97;;;;;;;8.43;100.00;99832.84;10421017;28;20421;-75
2022/02/16 03:37:31;;;;;;;9.35;7.15;;;;;;;8.28;100.00;99810.63;10422288;28;20143;-74
2022/02/16 03:42:31;;;;;;;11.10;6.13;;;;;;;8.36;100.00;99805.00;10425657;28;20122;-74
2022/02/16 03:47:32;;;;;;;6.85;5.90;;;;;;;8.30;100.00;99797.75;10425184;28;20384;-75
2022/02/16 03:52:32;;;;;;;6.78;5.45;;;;;;;8.40;100.00;99787.38;10420000;28;20461;-75
2022/02/16 03:57:33;;;;;;;6.28;5.68;;;;;;;8.34;100.00;99761.22;10420635;28;20033;-75
2022/02/16 04:02:33;;;;;;;4.78;4.03;;;;;;;8.26;100.00;99756.88;10419368;28;20497;-75
2022/02/16 04:07:34;;;;;;;7.50;6.75;;;;;;;8.32;100.00;99733.63;10420387;28;20109;-75
2022/02/16 04:12:34;;;;;;;10.30;9.30;;;;;;;8.35;100.00;99728.63;10420665;28;20093;-75
2022/02/16 04:17:35;;;;;;;6.43;5.32;;;;;;;8.37;100.00;99714.94;10424858;28;20037;-75
2022/02/16 04:22:45;;;;;;;6.82;6.22;;;;;;;8.42;100.00;99715.16;10420981;28;20048;-74
2022/02/16 04:27:46;;;;;;;6.55;6.03;;;;;;;8.35;100.00;99692.75;10419649;28;20473;-73
2022/02/16 04:32:46;;;;;;;5.70;5.30;;;;;;;8.45;100.00;99679.66;10418349;28;20026;-74
2022/02/16 04:37:47;;;;;;;4.80;4.47;;;;;;;8.43;100.00;99673.66;10418158;28;20541;-74
2022/02/16 04:42:47;;;;;;;10.57;5.40;;;;;;;8.50;100.00;99644.78;10417713;28;20065;-73
2022/02/16 04:47:47;;;;;;;5.25;4.85;;;;;;;8.58;100.00;99633.75;10418704;28;20411;-73
2022/02/16 04:52:49;;;;;;;4.68;4.25;;;;;;;8.55;100.00;99625.22;10418341;28;20076;-73
2022/02/16 04:57:50;;;;;;;5.97;5.50;;;;;;;8.54;100.00;99618.19;10419252;28;20042;-74
2022/02/16 05:02:50;;;;;;;7.18;4.88;;;;;;;8.47;100.00;99591.25;10418057;28;20041;-74
2022/02/16 05:07:51;;;;;;;5.63;5.13;;;;;;;8.51;100.00;99565.47;10415984;28;20033;-74
2022/02/16 05:12:51;;;;;;;5.05;4.68;;;;;;;8.59;100.00;99581.44;10417539;28;20064;-74
2022/02/16 05:17:52;;;;;;;8.10;6.20;;;;;;;8.65;100.00;99582.44;10416201;28;20437;-74
2022/02/16 05:22:52;;;;;;;7.35;6.65;;;;;;;8.64;100.00;99552.97;10418597;28;20500;-75
2022/02/16 05:27:52;;;;;;;22.55;6.85;;;;;;;8.67;100.00;99560.63;10416643;28;20037;-73
2022/02/16 05:32:53;;;;;;;8.45;6.50;;;;;;;8.66;100.00;99548.19;10416636;28;20392;-74
2022/02/16 05:37:53;;;;;;;7.03;6.32;;;;;;;8.66;100.00;99529.28;10415947;28;20092;-75
2022/02/16 05:42:54;;;;;;;8.32;7.50;;;;;;;8.76;100.00;99524.22;10416052;28;20037;-73
2022/02/16 05:47:54;;;;;;;6.22;5.72;;;;;;;8.77;100.00;99506.97;10417099;28;20096;-75
2022/02/16 05:52:54;;;;;;;6.70;5.63;;;;;;;8.83;100.00;99517.72;10416339;28;20069;-75
2022/02/16 05:57:55;;;;;;;5.32;4.93;;;;;;;8.94;100.00;99521.59;10417010;28;20040;-75
2022/02/16 06:02:55;;;;;;;5.25;4.78;;;;;;;8.88;100.00;99500.06;10416118;28;20540;-73
2022/02/16 06:07:55;;;;;;;5.05;4.65;;;;;;;8.86;100.00;99492.16;10354313;28;20042;-73
2022/02/16 06:12:58;;;;;;;4.93;4.53;;;;;;;8.86;100.00;99505.66;10415537;28;20112;-74
2022/02/16 06:17:58;;;;;;;3.55;3.25;;;;;;;8.95;100.00;99501.63;10416747;28;20049;-74
2022/02/16 06:22:58;;;;;;;4.22;3.83;;;;;;;9.02;100.00;99502.41;10417452;28;20046;-74
2022/02/16 06:28:03;;;;;;;4.22;3.83;;;;;;;9.06;100.00;99506.34;10416807;28;20370;-74
2022/02/16 06:33:03;;;;;;;5.78;3.65;;;;;;;9.11;100.00;99508.34;10416326;28;20044;-74
2022/02/16 06:38:06;;;;;;;4.88;3.22;;;;;;;9.16;100.00;99505.00;10415994;28;20053;-76
2022/02/16 06:43:06;;;;;;;5.78;3.30;;;;;;;9.24;100.00;99519.03;10416297;28;20055;-75
2022/02/16 06:48:07;;;;;;;5.80;3.75;;;;;;;9.29;100.00;99524.59;10416013;28;20525;-75
2022/02/16 06:53:07;;;;;;;8.05;4.05;;;;;;;9.32;100.00;99509.81;10414107;28;20030;-74
2022/02/16 06:58:08;;;;;;;11.38;6.25;;;;;;;9.39;100.00;99504.34;10415483;28;20029;-74
2022/02/16 07:03:09;;;;;;;10.43;6.30;;;;;;;9.45;100.00;99492.66;10418877;28;20126;-74
2022/02/16 07:08:09;;;;;;;11.10;6.22;;;;;;;9.56;100.00;99491.88;10422063;28;20120;-74
2022/02/16 07:13:09;;;;;;;7.03;6.00;;;;;;;9.63;100.00;99495.31;10422917;28;20033;-75
2022/02/16 07:18:10;;;;;;;6.25;5.68;;;;;;;9.73;100.00;99508.31;10420311;28;20029;-75
2022/02/16 07:23:10;;;;;;;11.38;5.85;;;;;;;9.79;100.00;99518.22;10420807;28;20084;-74
2022/02/16 07:28:11;;;;;;;5.68;5.15;;;;;;;9.88;100.00;99519.56;10421897;28;20116;-74
2022/02/16 07:33:12;;;;;;;16.67;5.22;;;;;;;9.89;100.00;99533.91;10421458;28;20068;-75
2022/02/16 07:38:13;;;;;;;12.38;5.15;;;;;;;9.93;100.00;99529.72;10422019;28;20054;-74
2022/02/16 07:43:13;;;;;;;8.32;4.32;;;;;;;9.95;100.00;99544.66;10420499;28;20477;-74
2022/02/16 07:48:14;;;;;;;21.17;6.15;;;;;;;9.99;100.00;99570.22;10420461;28;20025;-75
2022/02/16 07:53:15;;;;;;;24.30;6.15;;;;;;;10.01;100.00;99576.19;10420948;28;20033;-74
2022/02/16 07:58:15;;;;;;;17.35;5.07;;;;;;;10.04;100.00;99584.91;10406152;28;20365;-75
2022/02/16 08:03:15;;;;;;;16.80;6.13;;;;;;;10.06;100.00;99582.81;10402816;28;20037;-75
2022/02/16 08:08:16;;;;;;;13.07;6.75;;;;;;;10.04;100.00;99580.34;10419966;28;20040;-74
2022/02/16 08:13:17;;;;;;;20.38;7.35;;;;;;;10.06;100.00;99580.13;10419831;28;20041;-74
2022/02/16 08:18:17;;;;;;;29.65;8.18;;;;;;;10.09;100.00;99599.41;10401987;28;20044;-74
2022/02/16 08:23:18;;;;;;;21.75;7.82;;;;;;;10.18;100.00;99578.31;10401841;28;20037;-74
2022/02/16 08:28:18;;;;;;;23.30;6.40;;;;;;;10.27;100.00;99579.66;10420233;28;20079;-74
2022/02/16 08:33:19;;;;;;;25.25;8.15;;;;;;;10.39;100.00;99575.13;10418857;28;20119;-75
2022/02/16 08:38:19;;;;;;;33.05;8.65;;;;;;;10.49;100.00;99574.59;10419623;28;20057;-75
2022/02/16 08:43:20;;;;;;;21.90;7.47;;;;;;;10.60;100.00;99584.63;10418278;28;20044;-74
2022/02/16 08:48:23;;;;;;;18.73;7.53;;;;;;;10.65;100.00;99592.06;10417627;28;20041;-75
2022/02/16 08:53:25;;;;;;;32.63;8.30;;;;;;;10.75;100.00;99592.31;10423477;28;20095;-75
2022/02/16 08:58:27;;;;;;;30.85;8.65;;;;;;;10.82;100.00;99601.19;10426473;28;20104;-75
2022/02/16 09:03:29;;;;;;;23.30;9.23;;;;;;;10.96;100.00;99615.34;10429110;28;20129;-75
2022/02/16 09:08:29;;;;;;;27.95;7.97;;;;;;;10.96;100.00;99603.69;10426036;28;20060;-75
2022/02/16 09:13:29;;;;;;;39.25;7.32;;;;;;;11.12;100.00;99603.03;10419589;28;20033;-75
2022/02/16 09:18:31;;;;;;;30.35;7.20;;;;;;;11.40;100.00;99607.78;10418377;28;20172;-75
2022/02/16 09:23:33;;;;;;;27.77;6.15;;;;;;;11.41;100.00;99606.72;10417793;28;20041;-76
2022/02/16 09:28:34;;;;;;;36.33;7.88;;;;;;;11.40;100.00;99605.91;10418020;28;20116;-75
2022/02/16 09:33:34;;;;;;;18.10;7.30;;;;;;;11.79;100.00;99602.72;10415567;28;20041;-75
2022/02/16 09:38:34;;;;;;;23.30;5.93;;;;;;;11.87;100.00;99596.97;10418235;28;20152;-75
2022/02/16 09:43:35;;;;;;;26.45;5.55;;;;;;;11.89;100.00;99613.00;10416598;28;20041;-75
2022/02/16 09:48:35;;;;;;;30.88;8.80;;;;;;;11.93;100.00;99604.13;10415418;28;20037;-75
2022/02/16 09:53:36;;;;;;;15.25;5.88;;;;;;;12.12;100.00;99610.22;10401106;28;20477;-75
2022/02/16 09:58:36;;;;;;;27.45;6.82;;;;;;;12.16;100.00;99616.03;10415217;28;20030;-76
2022/02/16 10:03:37;;;;;;;22.90;5.63;;;;;;;12.14;100.00;99589.13;10415412;28;20041;-76
2022/02/16 10:08:47;;;;;;;15.43;6.72;;;;;;;12.08;100.00;99599.03;10399991;28;20389;-76
2022/02/16 10:13:47;;;;;;;32.28;6.00;;;;;;;11.85;100.00;99586.34;10417333;28;20040;-76
2022/02/16 10:18:59;;;;;;;16.08;5.10;;;;;;;11.78;100.00;99558.50;10415224;28;20484;-76
2022/02/16 10:24:00;;;;;;;17.05;6.63;;;;;;;11.80;100.00;99559.06;10419223;28;20029;-75
2022/02/16 10:29:00;;;;;;;15.38;5.53;;;;;;;11.75;100.00;99560.84;10417128;28;20037;-76
2022/02/16 10:34:02;;;;;;;16.85;6.35;;;;;;;11.66;100.00;99557.69;10397710;28;20132;-76
2022/02/16 10:39:10;;;;;;;16.60;6.60;;;;;;;11.59;100.00;99555.09;10420003;28;20492;-76
2022/02/16 10:44:20;;;;;;;27.27;8.18;;;;;;;11.49;100.00;99559.47;10425083;28;20075;-76
2022/02/16 10:49:21;;;;;;;15.00;5.90;;;;;;;11.53;100.00;99556.03;10423459;28;20034;-76
2022/02/16 10:54:22;;;;;;;24.20;7.47;;;;;;;11.56;100.00;99593.53;10424372;28;20037;-76
2022/02/16 10:59:22;;;;;;;20.42;6.10;;;;;;;11.59;100.00;99616.63;10422063;28;20036;-76
2022/02/16 11:04:23;;;;;;;17.10;5.57;;;;;;;11.66;100.00;99603.78;10423326;28;20033;-76
2022/02/16 11:09:25;;;;;;;21.90;6.63;;;;;;;11.60;100.00;99589.28;10405801;28;20076;-76
2022/02/16 11:14:28;;;;;;;15.90;7.18;;;;;;;11.56;100.00;99576.44;10421727;28;20362;-76
2022/02/16 11:19:35;;;;;;;17.15;5.68;;;;;;;11.57;100.00;99584.31;10422233;28;20523;-76
2022/02/16 11:24:37;;;;;;;22.98;6.00;;;;;;;11.56;100.00;99592.69;10421730;28;20034;-76
2022/02/16 11:29:38;;;;;;;19.52;7.65;;;;;;;11.61;100.00;99590.09;10422382;28;20052;-76
2022/02/16 11:34:39;;;;;;;18.08;6.05;;;;;;;11.63;100.00;99580.66;10425995;28;20105;-76
2022/02/16 11:39:52;;;;;;;30.63;5.10;;;;;;;11.64;100.00;99589.63;10428221;28;20128;-77
2022/02/16 11:44:53;;;;;;;16.90;5.28;;;;;;;11.60;100.00;99599.28;10422030;28;20403;-77
2022/02/16 11:49:53;;;;;;;15.45;7.03;;;;;;;11.58;100.00;99591.41;10420103;28;20120;-77
2022/02/16 11:54:55;;;;;;;15.68;7.20;;;;;;;11.66;100.00;99582.09;10420739;28;20041;-76
2022/02/16 11:59:56;;;;;;;22.75;7.22;;;;;;;11.72;100.00;99586.56;10420507;28;20049;-77
2022/02/16 12:04:57;;;;;;;22.38;6.90;;;;;;;11.71;100.00;99606.63;10420024;28;20029;-77
2022/02/16 12:10:13;;;;;;;16.15;5.65;;;;;;;11.74;100.00;99599.88;10402601;28;20424;-76
2022/02/16 12:15:16;;;;;;;16.52;6.25;;;;;;;11.60;100.00;99607.44;10420023;28;20033;-77
2022/02/16 12:20:16;;;;;;;23.77;7.88;;;;;;;11.61;100.00;99599.06;10422178;28;20373;-77
2022/02/16 12:25:17;;;;;;;24.80;7.65;;;;;;;11.64;100.00;99593.16;10419837;28;20044;-77
2022/02/16 12:30:17;;;;;;;29.15;8.70;;;;;;;11.69;100.00;99588.94;10418399;28;20428;-78
2022/02/16 12:35:18;;;;;;;29.38;8.48;;;;;;;11.67;100.00;99618.16;10419046;28;20085;-78
2022/02/16 12:40:20;;;;;;;52.78;10.82;;;;;;;11.81;100.00;99620.41;10402395;28;20041;-78
2022/02/16 12:45:24;;;;;;;27.52;9.55;;;;;;;11.81;100.00;99608.72;10401366;28;20453;-79
2022/02/16 12:50:27;;;;;;;38.38;8.18;;;;;;;11.77;100.00;99600.25;10417860;28;20037;-79
2022/02/16 12:55:28;;;;;;;23.77;7.88;;;;;;;11.78;100.00;99609.19;10416875;28;20040;-79
2022/02/16 13:00:46;;;;;;;48.08;10.93;;;;;;;11.70;100.00;99610.38;10417815;28;20038;-79
2022/02/16 13:05:47;;;;;;;41.20;9.90;;;;;;;11.66;100.00;99602.97;10418146;28;20042;-79
2022/02/16 13:10:48;;;;;;;20.90;7.65;;;;;;;11.61;100.00;99615.34;10416290;28;20056;-78
2022/02/16 13:15:49;;;;;;;28.50;8.80;;;;;;;11.67;100.00;99605.41;10419672;28;20137;-79
2022/02/16 13:20:49;;;;;;;31.80;9.30;;;;;;;11.68;100.00;99596.25;10419125;28;20048;-80
2022/02/16 13:25:52;;;;;;;35.67;9.13;;;;;;;11.65;100.00;99583.16;10427780;28;20075;-79
2022/02/16 13:30:55;;;;;;;43.97;11.13;;;;;;;11.64;100.00;99595.03;10427006;28;20038;-79
2022/02/16 13:36:00;;;;;;;47.67;11.73;;;;;;;11.58;100.00;99607.69;10416768;28;20518;-80
2022/02/16 13:41:05;;;;;;;31.17;11.73;;;;;;;11.45;100.00;99578.06;10399856;28;20083;-81
2022/02/16 13:46:07;;;;;;;29.60;10.38;;;;;;;11.40;100.00;99567.13;10426115;28;20542;-79
2022/02/16 13:51:15;;;;;;;18.02;8.88;;;;;;;11.39;100.00;99573.59;10416548;28;20075;-80
2022/02/16 13:56:17;;;;;;;46.55;11.63;;;;;;;11.29;100.00;99538.13;10416404;28;20453;-80
2022/02/16 14:01:19;;;;;;;37.55;13.27;;;;;;;11.14;100.00;99544.03;10418539;28;20029;-81
2022/02/16 14:06:19;;;;;;;56.67;14.25;;;;;;;11.07;100.00;99532.44;10416413;28;20095;-81
2022/02/16 14:11:20;;;;;;;46.10;14.10;;;;;;;11.07;100.00;99524.31;10428491;28;20042;-80
2022/02/16 14:16:20;;;;;;;28.08;12.07;;;;;;;11.05;100.00;99518.34;10436537;28;20029;-80
2022/02/16 14:21:21;;;;;;;48.53;12.98;;;;;;;10.92;100.00;99517.50;10418697;28;20045;-80
2022/02/16 14:26:21;;;;;;;42.22;11.45;;;;;;;10.87;100.00;99506.53;10417986;28;20130;-80
2022/02/16 14:31:22;;;;;;;44.83;13.52;;;;;;;10.85;100.00;99513.25;10418359;28;20041;-81
2022/02/16 14:36:22;;;;;;;53.47;15.15;;;;;;;10.79;100.00;99506.88;10415379;28;20050;-81
2022/02/16 14:41:22;;;;;;;53.90;14.48;;;;;;;10.79;100.00;99478.97;10416153;28;20503;-80
2022/02/16 14:46:23;;;;;;;52.88;12.68;;;;;;;10.83;100.00;99453.06;10416515;28;20033;-80
2022/02/16 14:51:27;;;;;;;48.13;12.20;;;;;;;10.86;100.00;99469.69;10417145;28;20534;-80
2022/02/16 14:56:27;;;;;;;31.48;13.70;;;;;;;10.80;100.00;99497.69;10415058;28;20108;-81
2022/02/16 15:01:28;;;;;;;45.17;12.27;;;;;;;10.87;100.00;99492.16;10414721;28;20069;-81
2022/02/16 15:06:28;;;;;;;47.13;13.15;;;;;;;10.83;100.00;99482.88;10414090;28;20064;-81
2022/02/16 15:11:29;;;;;;;78.00;15.68;;;;;;;10.87;100.00;99444.25;10419348;28;20038;-81
2022/02/16 15:16:29;;;;;;;51.55;14.80;;;;;;;10.88;100.00;99426.94;10404677;28;20029;-81
2022/02/16 15:21:30;;;;;;;39.28;11.85;;;;;;;10.90;100.00;99422.09;10415967;28;20029;-81
2022/02/16 15:26:30;;;;;;;37.50;14.35;;;;;;;10.92;100.00;99421.88;10423087;28;20247;-81
2022/02/16 15:31:31;;;;;;;50.88;13.52;;;;;;;10.87;100.00;99391.97;10422721;28;20045;-82
2022/02/16 15:36:32;;;;;;;39.97;12.65;;;;;;;10.92;100.00;99365.00;10422053;28;20165;-81
2022/02/16 15:41:32;;;;;;;39.25;12.13;;;;;;;10.85;100.00;99370.56;10438591;28;20072;-81
2022/02/16 15:46:33;;;;;;;38.92;10.02;;;;;;;10.90;100.00;99370.66;10443709;28;20037;-80
2022/02/16 15:51:33;;;;;;;36.88;11.18;;;;;;;10.93;100.00;99355.81;10426681;28;20029;-81
2022/02/16 15:56:33;;;;;;;29.92;10.43;;;;;;;10.93;100.00;99356.63;10421270;28;20052;-81
2022/02/16 16:01:34;;;;;;;34.08;8.75;;;;;;;11.01;100.00;99411.50;10421727;28;20389;-81
2022/02/16 16:06:37;;;;;;;21.23;6.38;;;;;;;11.02;100.00;99367.13;10420577;28;20056;-81
2022/02/16 16:11:37;;;;;;;32.40;7.50;;;;;;;11.08;100.00;99355.31;10433070;28;20047;-82
2022/02/16 16:16:39;;;;;;;23.77;6.65;;;;;;;11.12;100.00;99323.97;10421799;28;20036;-81
2022/02/16 16:21:40;;;;;;;12.85;5.18;;;;;;;11.21;100.00;99324.44;10423878;28;20076;-81
2022/02/16 16:26:40;;;;;;;5.60;4.38;;;;;;;11.16;100.00;99295.34;10419530;28;20056;-80
2022/02/16 16:31:41;;;;;;;9.57;5.68;;;;;;;11.25;100.00;99299.31;10419142;28;20037;-81
2022/02/16 16:36:41;;;;;;;20.63;4.65;;;;;;;11.30;100.00;99279.63;10402367;28;20102;-81
2022/02/16 16:41:42;;;;;;;11.40;4.93;;;;;;;11.30;100.00;99242.50;10404745;28;20360;-79
2022/02/16 16:46:42;;;;;;;10.75;4.00;;;;;;;11.32;100.00;99262.03;10426479;28;20038;-80
2022/02/16 16:51:43;;;;;;;10.73;4.22;;;;;;;11.38;100.00;99239.41;10440202;28;20038;-80
2022/02/16 16:56:43;;;;;;;10.23;4.60;;;;;;;11.27;100.00;99205.06;10440239;28;20061;-80
2022/02/16 17:01:44;;;;;;;11.93;4.95;;;;;;;11.31;100.00;99270.44;10421070;28;20037;-80
2022/02/16 17:06:44;;;;;;;12.57;5.30;;;;;;;11.31;100.00;99259.59;10403071;28;20469;-79
2022/02/16 17:11:45;;;;;;;5.60;2.92;;;;;;;11.39;100.00;99241.06;10428099;28;20044;-79
2022/02/16 17:16:45;;;;;;;11.23;5.22;;;;;;;11.36;100.00;99233.41;10420261;28;20034;-79
2022/02/16 17:21:46;;;;;;;25.05;5.20;;;;;;;11.36;100.00;99246.97;10420264;28;20099;-79
2022/02/16 17:26:47;;;;;;;14.07;4.70;;;;;;;11.41;100.00;99227.25;10417511;28;20377;-80
2022/02/16 17:31:48;;;;;;;11.00;3.95;;;;;;;11.36;100.00;99200.91;10417485;28;20113;-80
2022/02/16 17:36:48;;;;;;;18.58;6.55;;;;;;;11.39;100.00;99165.19;10416979;28;20567;-79
2022/02/16 17:41:48;;;;;;;17.40;6.90;;;;;;;11.39;100.00;99164.31;10427249;28;20041;-79
2022/02/16 17:46:49;;;;;;;16.15;6.50;;;;;;;11.34;100.00;99175.09;10418791;28;20056;-79
2022/02/16 17:51:49;;;;;;;10.60;5.47;;;;;;;11.36;100.00;99195.47;10419899;28;20033;-80
2022/02/16 17:56:50;;;;;;;15.20;6.13;;;;;;;11.36;100.00;99173.78;10421198;28;20033;-79
2022/02/16 18:01:54;;;;;;;13.43;4.80;;;;;;;11.37;100.00;99180.84;10425729;28;20056;-79
2022/02/16 18:06:55;;;;;;;17.25;6.45;;;;;;;11.38;100.00;99141.81;10426030;28;20403;-78
2022/02/16 18:11:55;;;;;;;17.85;6.00;;;;;;;11.36;100.00;99149.41;10402544;28;20037;-79
2022/02/16 18:16:56;;;;;;;7.78;5.50;;;;;;;11.44;100.00;99140.03;10414693;28;20033;-79
2022/02/16 18:21:56;;;;;;;19.73;7.47;;;;;;;11.44;100.00;99158.19;10414552;28;20029;-79
2022/02/16 18:26:57;;;;;;;19.70;7.18;;;;;;;11.41;100.00;99160.31;10399457;28;20171;-79
2022/02/16 18:31:59;;;;;;;15.05;6.60;;;;;;;11.36;100.00;99137.75;10416723;28;20358;-78
2022/02/16 18:37:00;;;;;;;16.95;8.48;;;;;;;11.36;100.00;99149.41;10416682;28;20057;-79
2022/02/16 18:42:00;;;;;;;11.63;6.00;;;;;;;11.38;100.00;99147.25;10414660;28;20124;-79
2022/02/16 18:47:01;;;;;;;26.85;7.43;;;;;;;11.32;100.00;99139.28;10414048;28;20512;-79
2022/02/16 18:52:02;;;;;;;25.77;7.32;;;;;;;11.31;100.00;99138.47;10415676;28;20042;-78
2022/02/16 18:57:02;;;;;;;30.95;7.18;;;;;;;11.28;100.00;99133.53;10416076;28;20041;-79
2022/02/16 19:02:04;;;;;;;34.40;8.05;;;;;;;11.26;100.00;99137.56;10424611;28;20088;-78
2022/02/16 19:07:05;;;;;;;24.88;6.63;;;;;;;11.27;100.00;99098.56;10429530;28;20412;-78
2022/02/16 19:12:06;;;;;;;22.75;8.70;;;;;;;11.23;100.00;99125.34;10422643;28;20043;-78
2022/02/16 19:17:07;;;;;;;13.63;6.15;;;;;;;11.25;100.00;99109.63;10421641;28;20033;-79
2022/02/16 19:22:09;;;;;;;20.90;7.47;;;;;;;11.28;100.00;99133.53;10423391;28;20038;-78
2022/02/16 19:27:09;;;;;;;15.45;7.20;;;;;;;11.22;100.00;99120.16;10434640;28;20112;-78
2022/02/16 19:32:09;;;;;;;23.55;7.72;;;;;;;11.10;100.00;99117.50;10411939;28;20461;-79
2022/02/16 19:37:10;;;;;;;27.20;7.43;;;;;;;10.82;100.00;99086.69;10431075;28;20056;-79
2022/02/16 19:42:11;;;;;;;22.90;7.82;;;;;;;10.67;100.00;99097.25;10422323;28;20481;-78
2022/02/16 19:47:11;;;;;;;20.80;6.20;;;;;;;10.63;100.00;99090.69;10420538;28;20120;-79
2022/02/16 19:52:12;;;;;;;36.33;9.10;;;;;;;10.60;100.00;99089.28;10421488;28;20120;-80
2022/02/16 19:57:12;;;;;;;26.33;6.88;;;;;;;10.62;100.00;99089.03;10403509;28;20033;-79
2022/02/16 20:02:13;;;;;;;31.75;8.52;;;;;;;10.55;100.00;99093.78;10421245;28;20117;-80
2022/02/16 20:07:15;;;;;;;25.73;7.22;;;;;;;10.51;100.00;99115.09;10440420;28;20034;-82
2022/02/16 20:12:18;;;;;;;36.47;9.30;;;;;;;10.45;100.00;99038.38;10427624;28;20042;-83
2022/02/16 20:17:18;;;;;;;27.95;9.15;;;;;;;10.44;100.00;99087.34;10441673;28;20088;-83
2022/02/16 20:22:19;;;;;;;32.50;8.00;;;;;;;10.42;100.00;99090.28;10444613;28;20400;-82
2022/02/16 20:27:19;;;;;;;28.17;9.25;;;;;;;10.37;100.00;99036.09;10421531;28;20038;-81
2022/02/16 20:32:20;;;;;;;14.80;8.05;;;;;;;10.41;100.00;99067.00;10420088;28;20461;-82
2022/02/16 20:37:21;;;;;;;17.67;6.60;;;;;;;10.45;100.00;99070.03;10418691;28;20469;-82
2022/02/16 20:42:27;;;;;;;33.15;9.68;;;;;;;10.46;100.00;99063.56;10402842;28;20033;-83
2022/02/16 20:47:27;;;;;;;27.88;9.40;;;;;;;10.46;100.00;99017.56;10403426;28;20025;-82
2022/02/16 20:52:28;;;;;;;15.73;6.90;;;;;;;10.48;100.00;99048.72;10418316;28;20037;-82
2022/02/16 20:57:32;;;;;;;39.42;11.13;;;;;;;10.50;100.00;99047.66;10418473;28;20037;-83
2022/02/16 21:02:32;;;;;;;34.42;8.88;;;;;;;10.57;100.00;99041.03;10418343;28;20029;-80
2022/02/16 21:07:32;;;;;;;32.38;9.43;;;;;;;10.57;100.00;99130.34;10431809;28;20029;-83
2022/02/16 21:12:33;;;;;;;26.25;8.93;;;;;;;10.50;100.00;99112.59;10418628;28;20527;-83
2022/02/16 21:17:33;;;;;;;25.40;10.25;;;;;;;10.53;100.00;99144.59;10418198;28;20465;-83
2022/02/16 21:22:34;;;;;;;32.47;10.43;;;;;;;10.52;100.00;99115.91;10418252;28;20065;-83
2022/02/16 21:27:35;;;;;;;43.55;11.95;;;;;;;10.44;100.00;99157.69;10420235;28;20025;-75
2022/02/16 21:32:35;;;;;;;18.42;6.88;;;;;;;10.21;100.00;99159.38;10420780;28;20026;-77
2022/02/16 21:37:36;;;;;;;24.50;9.98;;;;;;;10.11;100.00;99158.31;10420068;28;20049;-78
2022/02/16 21:42:37;;;;;;;40.67;11.32;;;;;;;10.17;100.00;99146.53;10399490;28;20473;-78
2022/02/16 21:47:37;;;;;;;46.08;14.13;;;;;;;10.15;100.00;99154.09;10416924;28;20037;-78
2022/02/16 21:52:38;;;;;;;48.65;14.43;;;;;;;10.16;100.00;99161.94;10416454;28;20388;-78
2022/02/16 21:57:39;;;;;;;56.08;12.43;;;;;;;10.09;100.00;99166.66;10399453;28;20033;-78
2022/02/16 22:02:42;;;;;;;62.67;13.93;;;;;;;10.13;100.00;99184.06;10435638;28;20052;-78
2022/02/16 22:07:43;;;;;;;38.80;13.15;;;;;;;10.04;100.00;99176.53;10403581;28;20033;-78
2022/02/16 22:12:45;;;;;;;40.15;12.68;;;;;;;9.98;100.00;99189.13;10416438;28;20034;-77
2022/02/16 22:17:46;;;;;;;57.10;14.45;;;;;;;10.08;100.00;99212.88;10416586;28;20385;-77
2022/02/16 22:22:48;;;;;;;50.60;16.83;;;;;;;10.04;100.00;99188.19;10415341;28;20037;-77
2022/02/16 22:27:48;;;;;;;57.67;15.65;;;;;;;10.09;100.00;99203.72;10415631;28;20045;-77
2022/02/16 22:32:49;;;;;;;37.67;12.80;;;;;;;10.11;100.00;99209.69;10435398;28;20057;-77
2022/02/16 22:37:50;;;;;;;37.33;11.68;;;;;;;10.06;100.00;99204.19;10409690;28;20077;-77
2022/02/16 22:42:50;;;;;;;55.58;14.98;;;;;;;10.14;100.00;99228.16;10425831;28;20112;-77
2022/02/16 22:47:51;;;;;;;64.78;13.95;;;;;;;10.17;100.00;99214.16;10406538;28;20091;-77
2022/02/16 22:52:51;;;;;;;48.45;11.73;;;;;;;10.15;100.00;99237.94;10423043;28;20037;-77